sensor_id;sensor_type;location;lat;lon;timestamp;P1;durP1;ratioP1;P2;durP2;ratioP2
9938;SDS011;5008;50.656;7.188;2024-03-08T05:00:13;14.63;;;10.90;;
9938;SDS011;5008;50.656;7.188;2024-03-08T05:02:41;15.40;;;10.90;;
9938;SDS011;5008;50.656;7.188;2024-03-08T05:05:09;14.23;;;10.97;;
9938;SDS011;5008;50.656;7.188;2024-03-08T05:07:37;14.20;;;11.53;;
9938;SDS011;5008;50.656;7.188;2024-03-08T05:10:05;14.57;;;11.43;;
9938;SDS011;5008;50.656;7.188;2024-03-08T05:12:32;17.70;;;11.80;;
9938;SDS011;5008;50.656;7.188;2024-03-08T05:14:59;17.60;;;12.90;;
9938;SDS011;5008;50.656;7.188;2024-03-08T05:17:28;18.73;;;12.43;;
9938;SDS011;5008;50.656;7.188;2024-03-08T05:19:55;18.90;;;13.57;;
9938;SDS011;5008;50.656;7.188;2024-03-08T05:22:22;18.23;;;13.73;;
9938;SDS011;5008;50.656;7.188;2024-03-08T05:24:48;14.83;;;12.30;;
9938;SDS011;5008;50.656;7.188;2024-03-08T05:27:15;19.07;;;12.53;;
9938;SDS011;5008;50.656;7.188;2024-03-08T05:29:42;21.70;;;14.83;;
9938;SDS011;5008;50.656;7.188;2024-03-08T05:32:09;19.60;;;15.70;;
9938;SDS011;5008;50.656;7.188;2024-03-08T05:34:38;19.60;;;15.20;;
9938;SDS011;5008;50.656;7.188;2024-03-08T05:37:05;18.23;;;13.33;;
9938;SDS011;5008;50.656;7.188;2024-03-08T05:39:32;17.47;;;12.97;;
9938;SDS011;5008;50.656;7.188;2024-03-08T05:41:59;19.23;;;12.93;;
9938;SDS011;5008;50.656;7.188;2024-03-08T05:44:26;18.37;;;13.47;;
9938;SDS011;5008;50.656;7.188;2024-03-08T05:46:53;15.80;;;11.47;;
9938;SDS011;5008;50.656;7.188;2024-03-08T05:49:21;15.40;;;12.30;;
9938;SDS011;5008;50.656;7.188;2024-03-08T05:51:49;17.00;;;12.87;;
9938;SDS011;5008;50.656;7.188;2024-03-08T05:54:16;16.23;;;12.07;;
9938;SDS011;5008;50.656;7.188;2024-03-08T05:56:43;17.10;;;12.13;;
9938;SDS011;5008;50.656;7.188;2024-03-08T05:59:10;18.07;;;12.17;;
9938;SDS011;5008;50.656;7.188;2024-03-08T06:01:37;18.40;;;12.23;;
9938;SDS011;5008;50.656;7.188;2024-03-08T06:04:06;16.80;;;12.10;;
9938;SDS011;5008;50.656;7.188;2024-03-08T06:06:33;15.83;;;12.37;;
9938;SDS011;5008;50.656;7.188;2024-03-08T06:09:01;16.57;;;11.57;;
9938;SDS011;5008;50.656;7.188;2024-03-08T06:11:34;15.97;;;11.83;;
9938;SDS011;5008;50.656;7.188;2024-03-08T06:14:02;15.43;;;11.20;;
9938;SDS011;5008;50.656;7.188;2024-03-08T06:16:29;16.13;;;12.10;;
9938;SDS011;5008;50.656;7.188;2024-03-08T06:18:56;17.50;;;11.47;;
9938;SDS011;5008;50.656;7.188;2024-03-08T06:21:23;16.53;;;11.60;;
9938;SDS011;5008;50.656;7.188;2024-03-08T06:23:52;16.00;;;11.47;;
9938;SDS011;5008;50.656;7.188;2024-03-08T06:26:21;16.57;;;10.87;;
9938;SDS011;5008;50.656;7.188;2024-03-08T06:28:48;17.60;;;12.30;;
9938;SDS011;5008;50.656;7.188;2024-03-08T06:31:15;17.77;;;11.57;;
9938;SDS011;5008;50.656;7.188;2024-03-08T06:33:42;16.17;;;11.50;;
9938;SDS011;5008;50.656;7.188;2024-03-08T06:36:10;16.33;;;11.63;;
9938;SDS011;5008;50.656;7.188;2024-03-08T06:38:37;15.10;;;12.00;;
9938;SDS011;5008;50.656;7.188;2024-03-08T06:41:07;16.47;;;12.07;;
9938;SDS011;5008;50.656;7.188;2024-03-08T06:43:35;16.90;;;12.20;;
9938;SDS011;5008;50.656;7.188;2024-03-08T06:46:02;18.03;;;12.87;;
9938;SDS011;5008;50.656;7.188;2024-03-08T06:48:29;16.20;;;11.50;;
9938;SDS011;5008;50.656;7.188;2024-03-08T06:50:57;16.10;;;12.20;;
9938;SDS011;5008;50.656;7.188;2024-03-08T06:53:24;17.37;;;12.17;;
9938;SDS011;5008;50.656;7.188;2024-03-08T06:55:51;16.67;;;12.47;;
9938;SDS011;5008;50.656;7.188;2024-03-08T06:58:18;18.43;;;12.93;;
9938;SDS011;5008;50.656;7.188;2024-03-08T07:00:47;16.40;;;11.77;;
9938;SDS011;5008;50.656;7.188;2024-03-08T07:03:17;16.33;;;12.20;;
9938;SDS011;5008;50.656;7.188;2024-03-08T07:05:43;14.77;;;11.97;;
9938;SDS011;5008;50.656;7.188;2024-03-08T07:08:11;18.00;;;12.77;;
9938;SDS011;5008;50.656;7.188;2024-03-08T07:10:39;18.47;;;12.70;;
9938;SDS011;5008;50.656;7.188;2024-03-08T07:13:06;21.03;;;14.80;;
9938;SDS011;5008;50.656;7.188;2024-03-08T07:15:33;23.27;;;16.07;;
9938;SDS011;5008;50.656;7.188;2024-03-08T07:18:02;24.37;;;16.63;;
9938;SDS011;5008;50.656;7.188;2024-03-08T07:20:29;25.07;;;17.67;;
9938;SDS011;5008;50.656;7.188;2024-03-08T07:22:56;20.07;;;14.97;;
9938;SDS011;5008;50.656;7.188;2024-03-08T07:25:23;20.00;;;15.23;;
9938;SDS011;5008;50.656;7.188;2024-03-08T07:27:54;18.90;;;14.47;;
9938;SDS011;5008;50.656;7.188;2024-03-08T07:30:22;19.73;;;14.30;;
9938;SDS011;5008;50.656;7.188;2024-03-08T07:33:09;13.87;;;10.70;;
9938;SDS011;5008;50.656;7.188;2024-03-08T07:35:36;15.13;;;10.93;;
9938;SDS011;5008;50.656;7.188;2024-03-08T07:38:04;12.83;;;10.70;;
9938;SDS011;5008;50.656;7.188;2024-03-08T07:40:31;17.80;;;12.50;;
9938;SDS011;5008;50.656;7.188;2024-03-08T07:42:58;14.90;;;11.87;;
9938;SDS011;5008;50.656;7.188;2024-03-08T07:45:25;18.27;;;13.37;;
9938;SDS011;5008;50.656;7.188;2024-03-08T07:47:52;15.97;;;11.80;;
9938;SDS011;5008;50.656;7.188;2024-03-08T07:50:20;12.67;;;10.10;;
9938;SDS011;5008;50.656;7.188;2024-03-08T07:52:47;14.33;;;10.13;;
9938;SDS011;5008;50.656;7.188;2024-03-08T07:55:14;14.03;;;11.27;;
9938;SDS011;5008;50.656;7.188;2024-03-08T07:57:41;14.93;;;11.93;;
9938;SDS011;5008;50.656;7.188;2024-03-08T08:00:09;16.43;;;12.67;;
9938;SDS011;5008;50.656;7.188;2024-03-08T08:02:40;15.63;;;11.27;;
9938;SDS011;5008;50.656;7.188;2024-03-08T08:05:07;17.13;;;12.20;;
9938;SDS011;5008;50.656;7.188;2024-03-08T08:07:36;13.40;;;11.57;;
9938;SDS011;5008;50.656;7.188;2024-03-08T08:10:03;14.07;;;11.27;;
9938;SDS011;5008;50.656;7.188;2024-03-08T08:12:31;14.27;;;11.77;;
9938;SDS011;5008;50.656;7.188;2024-03-08T08:14:59;15.20;;;10.90;;
9938;SDS011;5008;50.656;7.188;2024-03-08T08:17:26;14.17;;;10.83;;
9938;SDS011;5008;50.656;7.188;2024-03-08T08:19:53;13.17;;;10.63;;
9938;SDS011;5008;50.656;7.188;2024-03-08T08:22:21;14.63;;;11.67;;
9938;SDS011;5008;50.656;7.188;2024-03-08T08:24:49;13.03;;;11.30;;
9938;SDS011;5008;50.656;7.188;2024-03-08T08:27:16;11.77;;;10.43;;
9938;SDS011;5008;50.656;7.188;2024-03-08T08:29:43;14.70;;;11.77;;
9938;SDS011;5008;50.656;7.188;2024-03-08T08:32:11;13.80;;;11.83;;
9938;SDS011;5008;50.656;7.188;2024-03-08T08:34:38;13.93;;;10.53;;
9938;SDS011;5008;50.656;7.188;2024-03-08T08:37:04;15.00;;;11.73;;
9938;SDS011;5008;50.656;7.188;2024-03-08T08:39:31;12.67;;;10.10;;
9938;SDS011;5008;50.656;7.188;2024-03-08T08:42:00;13.07;;;9.57;;
9938;SDS011;5008;50.656;7.188;2024-03-08T08:44:27;14.70;;;12.07;;
9938;SDS011;5008;50.656;7.188;2024-03-08T08:46:56;13.40;;;11.53;;
9938;SDS011;5008;50.656;7.188;2024-03-08T08:49:23;11.93;;;9.43;;
9938;SDS011;5008;50.656;7.188;2024-03-08T08:51:51;12.10;;;10.03;;
9938;SDS011;5008;50.656;7.188;2024-03-08T08:54:18;10.23;;;8.63;;
9938;SDS011;5008;50.656;7.188;2024-03-08T08:56:45;11.80;;;8.87;;
9938;SDS011;5008;50.656;7.188;2024-03-08T08:59:13;15.37;;;11.37;;
9938;SDS011;5008;50.656;7.188;2024-03-08T09:01:42;12.20;;;10.60;;
9938;SDS011;5008;50.656;7.188;2024-03-08T09:04:12;14.67;;;12.20;;
9938;SDS011;5008;50.656;7.188;2024-03-08T09:06:38;13.17;;;10.53;;
9938;SDS011;5008;50.656;7.188;2024-03-08T09:09:07;13.93;;;10.63;;
9938;SDS011;5008;50.656;7.188;2024-03-08T09:11:35;11.93;;;9.87;;
9938;SDS011;5008;50.656;7.188;2024-03-08T09:14:06;11.47;;;9.80;;
9938;SDS011;5008;50.656;7.188;2024-03-08T09:16:35;12.73;;;10.37;;
9938;SDS011;5008;50.656;7.188;2024-03-08T09:19:02;12.50;;;9.10;;
9938;SDS011;5008;50.656;7.188;2024-03-08T09:21:28;12.87;;;10.10;;
9938;SDS011;5008;50.656;7.188;2024-03-08T09:23:56;12.27;;;9.80;;
9938;SDS011;5008;50.656;7.188;2024-03-08T09:26:23;11.00;;;8.83;;
9938;SDS011;5008;50.656;7.188;2024-03-08T09:28:50;13.50;;;9.97;;
9938;SDS011;5008;50.656;7.188;2024-03-08T09:31:17;10.87;;;9.37;;
9938;SDS011;5008;50.656;7.188;2024-03-08T09:33:46;10.83;;;8.87;;
9938;SDS011;5008;50.656;7.188;2024-03-08T09:36:13;13.73;;;10.60;;
9938;SDS011;5008;50.656;7.188;2024-03-08T09:38:40;9.77;;;8.73;;
9938;SDS011;5008;50.656;7.188;2024-03-08T09:41:06;12.37;;;10.27;;
9938;SDS011;5008;50.656;7.188;2024-03-08T09:43:35;12.70;;;9.17;;
9938;SDS011;5008;50.656;7.188;2024-03-08T09:46:03;11.70;;;9.20;;
9938;SDS011;5008;50.656;7.188;2024-03-08T09:48:31;10.97;;;9.53;;
9938;SDS011;5008;50.656;7.188;2024-03-08T09:50:59;12.50;;;9.87;;
9938;SDS011;5008;50.656;7.188;2024-03-08T09:53:26;9.40;;;7.87;;
9938;SDS011;5008;50.656;7.188;2024-03-08T09:55:53;10.37;;;8.83;;
9938;SDS011;5008;50.656;7.188;2024-03-08T09:58:19;9.67;;;8.20;;
9938;SDS011;5008;50.656;7.188;2024-03-08T10:01:19;8.47;;;7.57;;
9938;SDS011;5008;50.656;7.188;2024-03-08T10:03:46;10.10;;;8.83;;
9938;SDS011;5008;50.656;7.188;2024-03-08T10:06:15;8.53;;;7.50;;
9938;SDS011;5008;50.656;7.188;2024-03-08T10:08:43;11.07;;;8.50;;
9938;SDS011;5008;50.656;7.188;2024-03-08T10:11:10;7.60;;;6.90;;
9938;SDS011;5008;50.656;7.188;2024-03-08T10:13:37;7.73;;;6.87;;
9938;SDS011;5008;50.656;7.188;2024-03-08T10:16:05;8.20;;;7.30;;
9938;SDS011;5008;50.656;7.188;2024-03-08T10:18:32;14.10;;;9.03;;
9938;SDS011;5008;50.656;7.188;2024-03-08T10:21:02;9.33;;;7.33;;
9938;SDS011;5008;50.656;7.188;2024-03-08T10:23:31;7.43;;;6.47;;
9938;SDS011;5008;50.656;7.188;2024-03-08T10:26:09;9.57;;;7.90;;
9938;SDS011;5008;50.656;7.188;2024-03-08T10:28:38;7.23;;;6.10;;
9938;SDS011;5008;50.656;7.188;2024-03-08T10:31:04;10.30;;;8.40;;
9938;SDS011;5008;50.656;7.188;2024-03-08T10:33:32;11.47;;;8.90;;
9938;SDS011;5008;50.656;7.188;2024-03-08T10:35:59;7.70;;;6.90;;
9938;SDS011;5008;50.656;7.188;2024-03-08T10:38:28;9.13;;;7.47;;
9938;SDS011;5008;50.656;7.188;2024-03-08T10:40:59;10.83;;;8.57;;
9938;SDS011;5008;50.656;7.188;2024-03-08T10:43:27;8.97;;;8.07;;
9938;SDS011;5008;50.656;7.188;2024-03-08T10:46:04;6.67;;;5.90;;
9938;SDS011;5008;50.656;7.188;2024-03-08T10:48:41;7.43;;;6.60;;
9938;SDS011;5008;50.656;7.188;2024-03-08T10:51:11;9.77;;;7.90;;
9938;SDS011;5008;50.656;7.188;2024-03-08T10:53:39;7.40;;;6.67;;
9938;SDS011;5008;50.656;7.188;2024-03-08T10:56:07;7.77;;;6.97;;
9938;SDS011;5008;50.656;7.188;2024-03-08T10:58:35;10.23;;;8.27;;
9938;SDS011;5008;50.656;7.188;2024-03-08T11:01:03;7.57;;;6.73;;
9938;SDS011;5008;50.656;7.188;2024-03-08T11:03:44;9.77;;;6.53;;
9938;SDS011;5008;50.656;7.188;2024-03-08T11:06:14;10.87;;;8.50;;
9938;SDS011;5008;50.656;7.188;2024-03-08T11:08:44;6.20;;;5.60;;
9938;SDS011;5008;50.656;7.188;2024-03-08T11:11:25;9.97;;;8.97;;
9938;SDS011;5008;50.656;7.188;2024-03-08T11:13:59;7.70;;;6.50;;
9938;SDS011;5008;50.656;7.188;2024-03-08T11:16:37;8.57;;;7.67;;
9938;SDS011;5008;50.656;7.188;2024-03-08T11:21:57;7.97;;;7.00;;
9938;SDS011;5008;50.656;7.188;2024-03-08T11:24:25;8.87;;;6.70;;
9938;SDS011;5008;50.656;7.188;2024-03-08T11:26:56;6.67;;;6.00;;
9938;SDS011;5008;50.656;7.188;2024-03-08T11:29:35;7.57;;;6.63;;
9938;SDS011;5008;50.656;7.188;2024-03-08T11:32:05;7.00;;;6.30;;
9938;SDS011;5008;50.656;7.188;2024-03-08T11:34:34;7.83;;;6.47;;
9938;SDS011;5008;50.656;7.188;2024-03-08T11:37:03;7.20;;;6.50;;
9938;SDS011;5008;50.656;7.188;2024-03-08T11:39:32;7.10;;;6.40;;
9938;SDS011;5008;50.656;7.188;2024-03-08T11:41:58;7.73;;;6.93;;
9938;SDS011;5008;50.656;7.188;2024-03-08T11:44:26;7.27;;;6.40;;
9938;SDS011;5008;50.656;7.188;2024-03-08T11:46:53;7.43;;;6.63;;
9938;SDS011;5008;50.656;7.188;2024-03-08T11:49:20;8.77;;;7.70;;
9938;SDS011;5008;50.656;7.188;2024-03-08T11:51:50;8.37;;;7.07;;
9938;SDS011;5008;50.656;7.188;2024-03-08T11:54:18;7.07;;;6.37;;
9938;SDS011;5008;50.656;7.188;2024-03-08T11:56:46;6.23;;;5.63;;
9938;SDS011;5008;50.656;7.188;2024-03-08T11:59:13;7.50;;;6.23;;
9938;SDS011;5008;50.656;7.188;2024-03-08T12:01:42;7.03;;;6.33;;
9938;SDS011;5008;50.656;7.188;2024-03-08T12:04:11;6.93;;;6.13;;
9938;SDS011;5008;50.656;7.188;2024-03-08T12:06:39;5.93;;;5.17;;
9938;SDS011;5008;50.656;7.188;2024-03-08T12:09:08;8.50;;;7.17;;
9938;SDS011;5008;50.656;7.188;2024-03-08T12:11:35;6.40;;;5.80;;
9938;SDS011;5008;50.656;7.188;2024-03-08T12:14:04;6.77;;;6.07;;
9938;SDS011;5008;50.656;7.188;2024-03-08T12:16:31;6.37;;;5.77;;
9938;SDS011;5008;50.656;7.188;2024-03-08T12:18:58;7.50;;;6.80;;
9938;SDS011;5008;50.656;7.188;2024-03-08T12:21:31;7.60;;;6.82;;
9938;SDS011;5008;50.656;7.188;2024-03-08T12:24:03;8.02;;;7.32;;
9938;SDS011;5008;50.656;7.188;2024-03-08T12:26:34;9.13;;;8.15;;
9938;SDS011;5008;50.656;7.188;2024-03-08T12:29:16;6.82;;;6.00;;
9938;SDS011;5008;50.656;7.188;2024-03-08T12:31:45;5.93;;;5.43;;
9938;SDS011;5008;50.656;7.188;2024-03-08T12:34:12;6.45;;;5.35;;
9938;SDS011;5008;50.656;7.188;2024-03-08T12:36:44;6.95;;;6.13;;
9938;SDS011;5008;50.656;7.188;2024-03-08T12:39:13;7.85;;;7.13;;
9938;SDS011;5008;50.656;7.188;2024-03-08T12:41:42;6.20;;;5.60;;
9938;SDS011;5008;50.656;7.188;2024-03-08T12:44:10;6.40;;;5.80;;
9938;SDS011;5008;50.656;7.188;2024-03-08T12:46:38;7.82;;;7.03;;
9938;SDS011;5008;50.656;7.188;2024-03-08T12:49:07;6.28;;;5.68;;
9938;SDS011;5008;50.656;7.188;2024-03-08T12:51:35;6.18;;;5.57;;
9938;SDS011;5008;50.656;7.188;2024-03-08T12:54:03;5.65;;;5.05;;
9938;SDS011;5008;50.656;7.188;2024-03-08T12:56:32;6.85;;;6.18;;
9938;SDS011;5008;50.656;7.188;2024-03-08T12:59:02;6.70;;;5.80;;
9938;SDS011;5008;50.656;7.188;2024-03-08T13:01:29;6.55;;;5.95;;
9938;SDS011;5008;50.656;7.188;2024-03-08T13:03:58;8.25;;;7.13;;
9938;SDS011;5008;50.656;7.188;2024-03-08T13:06:26;5.80;;;5.30;;
9938;SDS011;5008;50.656;7.188;2024-03-08T13:08:54;5.93;;;5.43;;
9938;SDS011;5008;50.656;7.188;2024-03-08T13:11:21;7.43;;;6.72;;
9938;SDS011;5008;50.656;7.188;2024-03-08T13:13:48;5.78;;;5.28;;
9938;SDS011;5008;50.656;7.188;2024-03-08T13:16:15;7.70;;;7.00;;
9938;SDS011;5008;50.656;7.188;2024-03-08T13:18:44;6.50;;;5.90;;
9938;SDS011;5008;50.656;7.188;2024-03-08T13:21:15;6.97;;;6.28;;
9938;SDS011;5008;50.656;7.188;2024-03-08T13:23:44;7.10;;;6.50;;
9938;SDS011;5008;50.656;7.188;2024-03-08T13:26:14;6.28;;;5.72;;
9938;SDS011;5008;50.656;7.188;2024-03-08T13:28:42;5.90;;;5.40;;
9938;SDS011;5008;50.656;7.188;2024-03-08T13:31:09;6.03;;;5.53;;
9938;SDS011;5008;50.656;7.188;2024-03-08T13:33:36;6.22;;;5.63;;
9938;SDS011;5008;50.656;7.188;2024-03-08T13:36:04;6.47;;;5.90;;
9938;SDS011;5008;50.656;7.188;2024-03-08T13:38:41;6.55;;;5.97;;
9938;SDS011;5008;50.656;7.188;2024-03-08T13:41:11;6.90;;;6.30;;
9938;SDS011;5008;50.656;7.188;2024-03-08T13:43:40;6.35;;;5.80;;
9938;SDS011;5008;50.656;7.188;2024-03-08T13:46:07;6.03;;;5.53;;
9938;SDS011;5008;50.656;7.188;2024-03-08T13:48:35;7.30;;;6.70;;
9938;SDS011;5008;50.656;7.188;2024-03-08T13:51:03;6.22;;;5.63;;
9938;SDS011;5008;50.656;7.188;2024-03-08T13:53:31;6.82;;;6.22;;
9938;SDS011;5008;50.656;7.188;2024-03-08T13:55:59;5.47;;;4.97;;
9938;SDS011;5008;50.656;7.188;2024-03-08T13:58:26;6.40;;;5.80;;
9938;SDS011;5008;50.656;7.188;2024-03-08T14:00:53;6.25;;;5.68;;
9938;SDS011;5008;50.656;7.188;2024-03-08T14:03:20;10.88;;;9.88;;
9938;SDS011;5008;50.656;7.188;2024-03-08T14:05:48;7.90;;;7.20;;
9938;SDS011;5008;50.656;7.188;2024-03-08T14:08:15;5.75;;;5.25;;
9938;SDS011;5008;50.656;7.188;2024-03-08T14:10:42;5.80;;;5.30;;
9938;SDS011;5008;50.656;7.188;2024-03-08T14:13:13;8.68;;;7.88;;
9938;SDS011;5008;50.656;7.188;2024-03-08T14:15:41;5.63;;;5.20;;
9938;SDS011;5008;50.656;7.188;2024-03-08T14:18:09;6.78;;;6.18;;
9938;SDS011;5008;50.656;7.188;2024-03-08T14:20:38;8.95;;;8.05;;
9938;SDS011;5008;50.656;7.188;2024-03-08T14:23:04;6.80;;;6.20;;
9938;SDS011;5008;50.656;7.188;2024-03-08T14:25:33;7.72;;;7.13;;
9938;SDS011;5008;50.656;7.188;2024-03-08T14:27:59;5.18;;;4.72;;
9938;SDS011;5008;50.656;7.188;2024-03-08T14:30:30;6.82;;;6.20;;
9938;SDS011;5008;50.656;7.188;2024-03-08T14:33:03;7.57;;;6.88;;
9938;SDS011;5008;50.656;7.188;2024-03-08T14:35:34;7.70;;;6.90;;
9938;SDS011;5008;50.656;7.188;2024-03-08T14:38:00;7.32;;;6.72;;
9938;SDS011;5008;50.656;7.188;2024-03-08T14:40:28;7.70;;;7.00;;
9938;SDS011;5008;50.656;7.188;2024-03-08T14:42:55;5.93;;;5.43;;
9938;SDS011;5008;50.656;7.188;2024-03-08T14:45:22;7.45;;;6.72;;
9938;SDS011;5008;50.656;7.188;2024-03-08T14:47:52;7.95;;;7.32;;
9938;SDS011;5008;50.656;7.188;2024-03-08T14:50:20;9.13;;;8.15;;
9938;SDS011;5008;50.656;7.188;2024-03-08T14:52:48;8.18;;;7.40;;
9938;SDS011;5008;50.656;7.188;2024-03-08T14:55:16;7.53;;;6.85;;
9938;SDS011;5008;50.656;7.188;2024-03-08T14:57:44;9.88;;;9.07;;
9938;SDS011;5008;50.656;7.188;2024-03-08T15:00:12;6.13;;;5.63;;
9938;SDS011;5008;50.656;7.188;2024-03-08T15:02:42;10.77;;;9.88;;
9938;SDS011;5008;50.656;7.188;2024-03-08T15:05:11;8.50;;;7.75;;
9938;SDS011;5008;50.656;7.188;2024-03-08T15:07:38;7.90;;;7.30;;
9938;SDS011;5008;50.656;7.188;2024-03-08T15:10:06;5.63;;;5.13;;
9938;SDS011;5008;50.656;7.188;2024-03-08T15:12:36;5.78;;;5.38;;
9938;SDS011;5008;50.656;7.188;2024-03-08T15:15:05;8.02;;;7.32;;
9938;SDS011;5008;50.656;7.188;2024-03-08T15:17:35;7.85;;;7.15;;
9938;SDS011;5008;50.656;7.188;2024-03-08T15:20:05;10.23;;;9.35;;
9938;SDS011;5008;50.656;7.188;2024-03-08T15:22:41;7.05;;;6.45;;
9938;SDS011;5008;50.656;7.188;2024-03-08T15:25:12;8.05;;;7.35;;
9938;SDS011;5008;50.656;7.188;2024-03-08T15:27:45;6.18;;;5.57;;
9938;SDS011;5008;50.656;7.188;2024-03-08T15:30:13;6.78;;;6.15;;
9938;SDS011;5008;50.656;7.188;2024-03-08T15:32:44;6.63;;;6.03;;
9938;SDS011;5008;50.656;7.188;2024-03-08T15:35:12;8.95;;;7.57;;
9938;SDS011;5008;50.656;7.188;2024-03-08T15:37:41;7.72;;;6.88;;
9938;SDS011;5008;50.656;7.188;2024-03-08T15:40:09;7.72;;;7.03;;
9938;SDS011;5008;50.656;7.188;2024-03-08T15:42:45;8.80;;;8.00;;
9938;SDS011;5008;50.656;7.188;2024-03-08T15:45:14;5.50;;;5.00;;
9938;SDS011;5008;50.656;7.188;2024-03-08T15:47:41;6.40;;;5.80;;
9938;SDS011;5008;50.656;7.188;2024-03-08T15:50:09;7.78;;;6.97;;
9938;SDS011;5008;50.656;7.188;2024-03-08T15:52:37;5.88;;;5.28;;
9938;SDS011;5008;50.656;7.188;2024-03-08T15:55:07;6.28;;;5.35;;
9938;SDS011;5008;50.656;7.188;2024-03-08T15:57:34;6.60;;;5.90;;
9938;SDS011;5008;50.656;7.188;2024-03-08T16:00:01;6.28;;;5.55;;
9938;SDS011;5008;50.656;7.188;2024-03-08T16:02:39;9.95;;;8.48;;
9938;SDS011;5008;50.656;7.188;2024-03-08T16:05:06;10.45;;;9.45;;
9938;SDS011;5008;50.656;7.188;2024-03-08T16:07:36;9.43;;;8.52;;
9938;SDS011;5008;50.656;7.188;2024-03-08T16:10:03;6.37;;;5.70;;
9938;SDS011;5008;50.656;7.188;2024-03-08T16:12:35;6.03;;;5.43;;
9938;SDS011;5008;50.656;7.188;2024-03-08T16:15:02;8.13;;;7.33;;
9938;SDS011;5008;50.656;7.188;2024-03-08T16:17:30;7.77;;;6.97;;
9938;SDS011;5008;50.656;7.188;2024-03-08T16:19:57;10.33;;;9.43;;
9938;SDS011;5008;50.656;7.188;2024-03-08T16:22:24;17.50;;;15.83;;
9938;SDS011;5008;50.656;7.188;2024-03-08T16:24:52;8.10;;;7.03;;
9938;SDS011;5008;50.656;7.188;2024-03-08T16:27:21;6.37;;;5.70;;
9938;SDS011;5008;50.656;7.188;2024-03-08T16:29:49;7.23;;;6.40;;
9938;SDS011;5008;50.656;7.188;2024-03-08T16:32:16;9.13;;;7.07;;
9938;SDS011;5008;50.656;7.188;2024-03-08T16:34:45;13.33;;;11.90;;
9938;SDS011;5008;50.656;7.188;2024-03-08T16:37:12;11.70;;;10.47;;
9938;SDS011;5008;50.656;7.188;2024-03-08T16:39:41;8.23;;;6.90;;
9938;SDS011;5008;50.656;7.188;2024-03-08T16:42:08;7.77;;;6.97;;
9938;SDS011;5008;50.656;7.188;2024-03-08T16:44:35;9.27;;;6.90;;
9938;SDS011;5008;50.656;7.188;2024-03-08T16:47:03;12.17;;;10.43;;
9938;SDS011;5008;50.656;7.188;2024-03-08T16:49:31;10.40;;;7.83;;
9938;SDS011;5008;50.656;7.188;2024-03-08T16:51:58;8.30;;;7.40;;
9938;SDS011;5008;50.656;7.188;2024-03-08T16:54:25;13.23;;;9.00;;
9938;SDS011;5008;50.656;7.188;2024-03-08T16:56:51;8.50;;;6.77;;
9938;SDS011;5008;50.656;7.188;2024-03-08T16:59:18;8.17;;;7.37;;
9938;SDS011;5008;50.656;7.188;2024-03-08T17:01:45;8.03;;;7.23;;
9938;SDS011;5008;50.656;7.188;2024-03-08T17:04:14;8.77;;;7.80;;
9938;SDS011;5008;50.656;7.188;2024-03-08T17:06:43;8.93;;;8.03;;
9938;SDS011;5008;50.656;7.188;2024-03-08T17:09:09;6.77;;;6.00;;
9938;SDS011;5008;50.656;7.188;2024-03-08T17:11:37;6.67;;;5.80;;
9938;SDS011;5008;50.656;7.188;2024-03-08T17:14:04;15.43;;;11.20;;
9938;SDS011;5008;50.656;7.188;2024-03-08T17:16:30;9.40;;;7.73;;
9938;SDS011;5008;50.656;7.188;2024-03-08T17:18:57;12.93;;;10.47;;
9938;SDS011;5008;50.656;7.188;2024-03-08T17:21:26;8.57;;;7.33;;
9938;SDS011;5008;50.656;7.188;2024-03-08T17:23:54;9.73;;;7.93;;
9938;SDS011;5008;50.656;7.188;2024-03-08T17:26:21;9.13;;;8.10;;
9938;SDS011;5008;50.656;7.188;2024-03-08T17:28:49;10.77;;;9.43;;
9938;SDS011;5008;50.656;7.188;2024-03-08T17:31:16;6.90;;;6.20;;
9938;SDS011;5008;50.656;7.188;2024-03-08T17:33:43;9.33;;;8.03;;
9938;SDS011;5008;50.656;7.188;2024-03-08T17:36:10;11.50;;;9.47;;
9938;SDS011;5008;50.656;7.188;2024-03-08T17:38:42;10.30;;;7.57;;
9938;SDS011;5008;50.656;7.188;2024-03-08T17:41:11;11.03;;;8.23;;
9938;SDS011;5008;50.656;7.188;2024-03-08T17:43:38;9.97;;;8.60;;
9938;SDS011;5008;50.656;7.188;2024-03-08T17:46:06;9.67;;;7.77;;
9938;SDS011;5008;50.656;7.188;2024-03-08T17:48:33;10.33;;;8.47;;
9938;SDS011;5008;50.656;7.188;2024-03-08T17:51:00;8.13;;;7.17;;
9938;SDS011;5008;50.656;7.188;2024-03-08T17:53:27;9.97;;;8.33;;
9938;SDS011;5008;50.656;7.188;2024-03-08T17:55:57;10.30;;;8.77;;
9938;SDS011;5008;50.656;7.188;2024-03-08T17:58:23;9.80;;;7.87;;
9938;SDS011;5008;50.656;7.188;2024-03-08T18:00:51;10.50;;;9.17;;
9938;SDS011;5008;50.656;7.188;2024-03-08T18:03:18;10.83;;;8.83;;
9938;SDS011;5008;50.656;7.188;2024-03-08T18:05:51;10.10;;;8.70;;
9938;SDS011;5008;50.656;7.188;2024-03-08T18:08:18;10.73;;;8.63;;
9938;SDS011;5008;50.656;7.188;2024-03-08T18:10:45;11.63;;;8.80;;
9938;SDS011;5008;50.656;7.188;2024-03-08T18:13:14;11.30;;;9.27;;
9938;SDS011;5008;50.656;7.188;2024-03-08T18:15:42;10.40;;;8.53;;
9938;SDS011;5008;50.656;7.188;2024-03-08T18:18:10;10.87;;;8.23;;
9938;SDS011;5008;50.656;7.188;2024-03-08T18:20:38;10.07;;;7.77;;
9938;SDS011;5008;50.656;7.188;2024-03-08T18:23:11;12.17;;;9.97;;
9938;SDS011;5008;50.656;7.188;2024-03-08T18:25:39;11.53;;;8.83;;
9938;SDS011;5008;50.656;7.188;2024-03-08T18:28:06;15.40;;;11.13;;
9938;SDS011;5008;50.656;7.188;2024-03-08T18:30:36;14.30;;;11.70;;
9938;SDS011;5008;50.656;7.188;2024-03-08T18:33:04;13.23;;;10.50;;
9938;SDS011;5008;50.656;7.188;2024-03-08T18:35:32;12.53;;;9.13;;
9938;SDS011;5008;50.656;7.188;2024-03-08T18:37:59;13.83;;;11.70;;
9938;SDS011;5008;50.656;7.188;2024-03-08T18:40:26;11.90;;;10.53;;
9938;SDS011;5008;50.656;7.188;2024-03-08T18:42:54;13.07;;;10.33;;
9938;SDS011;5008;50.656;7.188;2024-03-08T18:45:21;14.73;;;10.20;;
9938;SDS011;5008;50.656;7.188;2024-03-08T18:47:52;12.73;;;9.87;;
9938;SDS011;5008;50.656;7.188;2024-03-08T18:50:21;10.63;;;8.77;;
9938;SDS011;5008;50.656;7.188;2024-03-08T18:52:50;13.57;;;10.13;;
9938;SDS011;5008;50.656;7.188;2024-03-08T18:55:18;13.03;;;10.07;;
9938;SDS011;5008;50.656;7.188;2024-03-08T18:57:49;12.77;;;10.50;;
9938;SDS011;5008;50.656;7.188;2024-03-08T19:00:18;11.10;;;9.50;;
9938;SDS011;5008;50.656;7.188;2024-03-08T19:02:54;12.20;;;10.30;;
9938;SDS011;5008;50.656;7.188;2024-03-08T19:05:22;12.67;;;9.43;;
9938;SDS011;5008;50.656;7.188;2024-03-08T19:07:50;14.60;;;10.43;;
9938;SDS011;5008;50.656;7.188;2024-03-08T19:10:18;10.70;;;9.13;;
9938;SDS011;5008;50.656;7.188;2024-03-08T19:12:46;12.50;;;10.30;;
9938;SDS011;5008;50.656;7.188;2024-03-08T19:15:14;10.63;;;9.03;;
9938;SDS011;5008;50.656;7.188;2024-03-08T19:17:42;15.13;;;12.10;;
9938;SDS011;5008;50.656;7.188;2024-03-08T19:20:11;12.73;;;9.80;;
9938;SDS011;5008;50.656;7.188;2024-03-08T19:22:41;12.90;;;10.40;;
9938;SDS011;5008;50.656;7.188;2024-03-08T19:25:08;13.53;;;10.70;;
9938;SDS011;5008;50.656;7.188;2024-03-08T19:27:35;11.73;;;9.70;;
9938;SDS011;5008;50.656;7.188;2024-03-08T19:30:03;14.27;;;10.83;;
9938;SDS011;5008;50.656;7.188;2024-03-08T19:32:31;14.40;;;10.73;;
9938;SDS011;5008;50.656;7.188;2024-03-08T19:34:59;15.20;;;10.17;;
9938;SDS011;5008;50.656;7.188;2024-03-08T19:37:27;16.20;;;11.70;;
9938;SDS011;5008;50.656;7.188;2024-03-08T19:39:54;13.97;;;10.10;;
9938;SDS011;5008;50.656;7.188;2024-03-08T19:42:20;13.70;;;10.50;;
9938;SDS011;5008;50.656;7.188;2024-03-08T19:44:50;15.10;;;10.80;;
9938;SDS011;5008;50.656;7.188;2024-03-08T19:47:16;14.17;;;10.83;;
9938;SDS011;5008;50.656;7.188;2024-03-08T19:49:43;14.57;;;10.97;;
9938;SDS011;5008;50.656;7.188;2024-03-08T19:52:10;12.63;;;10.83;;
9938;SDS011;5008;50.656;7.188;2024-03-08T19:54:38;14.60;;;11.07;;
9938;SDS011;5008;50.656;7.188;2024-03-08T19:57:05;13.33;;;10.70;;
9938;SDS011;5008;50.656;7.188;2024-03-08T19:59:32;12.73;;;10.47;;
9938;SDS011;5008;50.656;7.188;2024-03-08T20:02:06;14.87;;;11.07;;
9938;SDS011;5008;50.656;7.188;2024-03-08T20:04:33;14.10;;;10.37;;
9938;SDS011;5008;50.656;7.188;2024-03-08T20:07:00;12.00;;;9.87;;
9938;SDS011;5008;50.656;7.188;2024-03-08T20:09:27;14.80;;;10.60;;
9938;SDS011;5008;50.656;7.188;2024-03-08T20:11:55;12.90;;;10.43;;